Time;durP1;ratioP1;P1;durP2;ratioP2;P2;SDS_P1;SDS_P2;PMS_P1;PMS_P2;Temp;Humidity;BMP_temperature;BMP_pressure;BME280_temperature;BME280_humidity;BME280_pressure;Samples;Min_cycle;Max_cycle;Signal;HPM_P1;HPM_P2
2022/02/06 00:00:53;;;;;;;16.25;3.33;;;7.60;99.90;;;;;;5009529;28;20045;-59
2022/02/06 00:03:19;;;;;;;18.15;4.05;;;7.60;99.90;;;;;;5018623;28;20137;-56
2022/02/06 00:05:48;;;;;;;13.27;3.45;;;7.60;99.90;;;;;;5009605;28;20049;-58
2022/02/06 00:08:14;;;;;;;19.45;3.63;;;7.60;99.90;;;;;;5011535;28;20077;-58
2022/02/06 00:10:40;;;;;;;19.10;3.78;;;7.60;99.90;;;;;;5009415;28;20065;-58
2022/02/06 00:13:06;;;;;;;16.25;4.00;;;7.60;99.90;;;;;;4992934;28;20049;-58
2022/02/06 00:15:32;;;;;;;18.20;3.50;;;7.70;99.90;;;;;;5010364;28;20679;-59
2022/02/06 00:17:58;;;;;;;23.33;3.97;;;7.70;99.90;;;;;;5014285;28;20041;-59
2022/02/06 00:20:31;;;;;;;15.60;3.78;;;7.70;99.90;;;;;;4991359;28;20033;-58
2022/02/06 00:23:00;;;;;;;21.73;3.47;;;7.70;99.90;;;;;;5011972;28;20073;-59
2022/02/06 00:25:34;;;;;;;16.45;3.35;;;7.70;99.90;;;;;;5014068;28;20037;-58
2022/02/06 00:28:13;;;;;;;17.90;3.83;;;7.70;99.90;;;;;;5015010;28;20053;-59
2022/02/06 00:30:49;;;;;;;22.70;3.80;;;7.70;99.90;;;;;;5002877;28;20038;-58
2022/02/06 00:33:45;;;;;;;19.77;3.67;;;7.70;99.90;;;;;;5031032;28;20544;-58
2022/02/06 00:41:15;;;;;;;23.42;4.35;;;7.80;99.90;;;;;;5004138;28;20096;-57
2022/02/06 00:43:42;;;;;;;22.00;4.38;;;7.80;99.90;;;;;;5014259;28;20173;-58
2022/02/06 00:46:09;;;;;;;20.15;3.83;;;7.80;99.90;;;;;;5013826;28;20045;-58
2022/02/06 00:48:42;;;;;;;14.35;3.85;;;7.80;99.90;;;;;;5014539;28;20042;-58
2022/02/06 00:53:37;;;;;;;21.40;4.00;;;7.90;99.90;;;;;;5013624;28;20045;-59
2022/02/06 00:56:02;;;;;;;17.75;4.10;;;7.90;99.90;;;;;;5012310;28;20517;-59
2022/02/06 00:58:28;;;;;;;23.20;4.10;;;7.90;99.90;;;;;;5014994;28;20125;-58
2022/02/06 01:00:54;;;;;;;23.48;4.75;;;8.00;99.90;;;;;;5013279;28;20045;-57
2022/02/06 01:03:19;;;;;;;21.35;4.10;;;7.90;99.90;;;;;;5014629;28;20117;-57
2022/02/06 01:05:45;;;;;;;24.35;5.20;;;7.90;99.90;;;;;;5013134;28;20045;-58
2022/02/06 01:08:10;;;;;;;19.83;3.72;;;7.90;99.90;;;;;;4994354;28;20108;-58
2022/02/06 01:10:37;;;;;;;20.50;4.15;;;7.90;99.90;;;;;;5012411;28;20509;-58
2022/02/06 01:13:18;;;;;;;23.65;3.83;;;7.90;99.90;;;;;;5006864;28;20563;-58
2022/02/06 01:15:54;;;;;;;20.50;4.38;;;7.90;99.90;;;;;;5015509;28;20042;-58
2022/02/06 01:18:26;;;;;;;21.25;4.07;;;7.90;99.90;;;;;;5012189;28;21811;-58
2022/02/06 01:21:01;;;;;;;24.17;4.32;;;7.90;99.90;;;;;;5013389;28;20054;-58
2022/02/06 01:23:33;;;;;;;17.10;4.38;;;8.00;99.90;;;;;;5013541;28;20556;-58
2022/02/06 01:26:07;;;;;;;;;;;8.00;99.90;;;;;;4994675;28;20046;-57
2022/02/06 01:28:41;;;;;;;17.33;4.03;;;8.00;99.90;;;;;;5012372;28;20004;-58
2022/02/06 01:34:09;;;;;;;18.50;3.95;;;8.00;99.90;;;;;;4950015;28;20174;-58
2022/02/06 01:36:46;;;;;;;20.65;3.55;;;8.00;99.90;;;;;;4968783;28;20038;-58
2022/02/06 01:39:56;;;;;;;21.85;4.38;;;8.00;99.90;;;;;;4995427;28;20167;-58
2022/02/06 01:42:05;;;;;;;18.93;3.93;;;8.00;99.90;;;;;;5009134;28;20045;-57
2022/02/06 02:09:22;;;;;;;25.48;4.40;;;8.10;99.90;;;;;;5003309;28;20054;-57
2022/02/06 02:14:38;;;;;;;22.77;4.65;;;8.10;99.90;;;;;;5014025;28;20054;-58
2022/02/06 02:17:28;;;;;;;26.60;4.30;;;8.10;99.90;;;;;;5011379;28;20034;-57
2022/02/06 02:20:15;;;;;;;28.05;4.55;;;8.10;99.90;;;;;;5010137;28;20053;-56
2022/02/06 02:23:11;;;;;;;22.42;4.70;;;8.10;99.90;;;;;;5009213;28;20437;-57
2022/02/06 02:28:56;;;;;;;19.23;3.53;;;8.20;99.90;;;;;;5004695;28;20077;-59
2022/02/06 02:31:23;;;;;;;20.23;4.03;;;8.20;99.90;;;;;;5009595;28;20073;-56
2022/02/06 02:47:19;;;;;;;19.80;3.65;;;8.20;99.90;;;;;;5002316;28;20042;-58
2022/02/06 02:49:52;;;;;;;22.42;5.32;;;8.30;99.90;;;;;;5009327;28;20140;-58
2022/02/06 02:52:44;;;;;;;25.83;4.10;;;8.30;99.90;;;;;;4987011;28;20390;-59
2022/02/06 02:57:52;;;;;;;29.33;4.60;;;8.30;99.90;;;;;;4997391;28;20437;-59
2022/02/06 03:02:47;;;;;;;22.15;3.45;;;8.30;99.90;;;;;;5010406;28;20041;-56
2022/02/06 03:05:13;;;;;;;24.92;4.43;;;8.30;99.90;;;;;;5007428;28;20046;-56
2022/02/06 03:07:39;;;;;;;18.67;4.07;;;8.30;99.90;;;;;;4998697;28;20113;-55
2022/02/06 03:10:05;;;;;;;25.27;4.38;;;8.40;99.90;;;;;;4993171;28;20042;-56
2022/02/06 03:12:34;;;;;;;20.67;4.38;;;8.30;99.90;;;;;;4999774;28;20113;-57
2022/02/06 03:15:10;;;;;;;19.60;4.65;;;8.30;99.90;;;;;;4988916;28;20046;-56
2022/02/06 03:17:39;;;;;;;27.52;5.07;;;8.30;99.90;;;;;;5006781;28;20499;-56
2022/02/06 03:20:08;;;;;;;27.08;4.20;;;8.30;99.90;;;;;;5002982;28;20049;-56
2022/02/06 03:22:47;;;;;;;33.75;5.65;;;8.40;99.90;;;;;;5012102;28;20044;-56
2022/02/06 03:25:18;;;;;;;23.70;4.15;;;8.30;99.90;;;;;;5002372;28;20038;-56
2022/02/06 03:27:44;;;;;;;25.40;4.70;;;8.40;99.90;;;;;;5001857;28;20042;-56
2022/02/06 03:30:10;;;;;;;25.77;4.10;;;8.40;99.90;;;;;;5003085;28;20089;-56
2022/02/06 03:32:35;;;;;;;32.17;4.75;;;8.40;99.90;;;;;;5002658;28;20107;-54
2022/02/06 03:35:01;;;;;;;20.60;3.63;;;8.40;99.90;;;;;;5007245;28;20034;-56
2022/02/06 03:37:28;;;;;;;32.80;6.15;;;8.40;99.90;;;;;;4986032;28;20406;-57
2022/02/06 03:39:55;;;;;;;19.67;4.13;;;8.40;99.90;;;;;;4984899;28;20034;-56
2022/02/06 03:42:29;;;;;;;21.20;3.67;;;8.40;99.90;;;;;;4992931;28;20091;-55
2022/02/06 03:45:00;;;;;;;20.50;3.92;;;8.50;99.90;;;;;;4969160;28;20076;-56
2022/02/06 03:47:34;;;;;;;22.25;3.42;;;8.60;99.90;;;;;;5008652;28;20117;-56
2022/02/06 03:50:04;;;;;;;23.58;4.57;;;8.60;99.90;;;;;;4999380;28;20117;-53
2022/02/06 03:52:43;;;;;;;19.13;3.72;;;8.60;99.90;;;;;;4990049;28;20152;-55
2022/02/06 03:55:09;;;;;;;21.10;4.00;;;8.60;99.90;;;;;;4988863;28;20042;-54
2022/02/06 03:57:35;;;;;;;19.23;3.30;;;8.60;99.90;;;;;;5008212;28;20409;-54
2022/02/06 04:00:00;;;;;;;19.15;4.22;;;8.60;99.90;;;;;;4962352;28;20046;-56
2022/02/06 04:02:29;;;;;;;19.17;4.07;;;8.60;99.90;;;;;;4985441;28;20062;-57
2022/02/06 04:04:54;;;;;;;24.05;4.53;;;8.60;99.90;;;;;;5003710;28;20540;-56
2022/02/06 04:07:20;;;;;;;15.93;3.30;;;8.60;99.90;;;;;;5008482;28;20046;-56
2022/02/06 04:09:50;;;;;;;27.58;3.78;;;8.60;99.90;;;;;;5010978;28;20029;-57
2022/02/06 04:12:18;;;;;;;16.17;3.50;;;8.60;99.90;;;;;;4995246;28;20394;-56
2022/02/06 04:15:06;;;;;;;18.20;3.53;;;8.60;99.90;;;;;;5007993;28;20034;-56
2022/02/06 04:17:43;;;;;;;22.77;3.60;;;8.60;99.90;;;;;;5010732;28;20038;-55
2022/02/06 04:20:09;;;;;;;25.23;3.60;;;8.60;99.90;;;;;;5014230;28;20066;-56
2022/02/06 04:22:35;;;;;;;19.23;3.13;;;8.60;99.90;;;;;;5005946;28;20038;-56
2022/02/06 04:25:00;;;;;;;21.58;4.00;;;8.60;99.90;;;;;;5010593;28;20490;-54
2022/02/06 04:27:26;;;;;;;21.70;3.95;;;8.50;99.90;;;;;;5008237;28;20038;-54
2022/02/06 04:29:53;;;;;;;25.33;4.32;;;8.50;99.90;;;;;;5012949;28;20498;-55
2022/02/06 04:32:19;;;;;;;20.98;4.18;;;8.60;99.90;;;;;;5014938;28;20030;-54
2022/02/06 04:34:45;;;;;;;24.90;4.70;;;8.50;99.90;;;;;;5011802;28;20065;-56
2022/02/06 04:37:18;;;;;;;20.70;4.25;;;8.50;99.90;;;;;;4995950;28;20088;-56
2022/02/06 04:42:32;;;;;;;19.10;3.70;;;8.50;99.90;;;;;;5013902;28;20038;-54
2022/02/06 04:45:44;;;;;;;19.08;3.20;;;8.60;99.90;;;;;;5013102;28;20503;-55
2022/02/06 05:14:56;;;;;;;27.30;3.40;;;8.70;99.90;;;;;;5001559;28;20054;-53
2022/02/06 05:23:01;;;;;;;19.33;2.92;;;8.70;99.90;;;;;;5004736;28;20046;-52
2022/02/06 05:30:58;;;;;;;20.65;4.10;;;8.70;99.90;;;;;;5012829;28;20053;-52
2022/02/06 05:33:24;;;;;;;21.20;3.88;;;8.80;99.90;;;;;;4987509;28;20099;-53
2022/02/06 05:35:49;;;;;;;20.52;3.92;;;8.70;99.90;;;;;;4981578;28;20482;-53
2022/02/06 05:38:15;;;;;;;23.95;4.13;;;8.80;99.90;;;;;;5010969;28;20041;-54
2022/02/06 05:40:40;;;;;;;19.88;3.50;;;8.80;99.90;;;;;;4992051;28;20449;-53
2022/02/06 05:43:06;;;;;;;25.65;3.65;;;8.80;99.90;;;;;;5012457;28;20409;-54
2022/02/06 05:45:32;;;;;;;20.92;4.05;;;8.80;99.90;;;;;;5012094;28;20073;-52
2022/02/06 05:47:57;;;;;;;30.45;3.90;;;8.80;99.90;;;;;;5004185;28;20129;-52
2022/02/06 05:50:23;;;;;;;21.38;3.80;;;8.80;99.90;;;;;;5012031;28;20034;-52
2022/02/06 05:52:49;;;;;;;24.50;4.05;;;8.70;99.90;;;;;;5006362;28;20038;-52
2022/02/06 05:55:15;;;;;;;24.70;4.35;;;8.70;99.90;;;;;;5008336;28;20116;-52
2022/02/06 05:57:41;;;;;;;27.42;4.03;;;8.80;99.90;;;;;;5000876;28;20088;-51
2022/02/06 06:00:09;;;;;;;23.30;3.75;;;8.80;99.90;;;;;;5007597;28;20034;-54
2022/02/06 06:02:35;;;;;;;26.92;3.88;;;8.80;99.90;;;;;;5002192;28;20034;-52
2022/02/06 06:05:01;;;;;;;22.23;3.53;;;8.80;99.90;;;;;;5003773;28;20037;-52
2022/02/06 06:07:27;;;;;;;21.73;3.80;;;8.90;99.90;;;;;;5004748;28;20045;-52
2022/02/06 06:09:52;;;;;;;20.48;3.15;;;8.80;99.90;;;;;;5002697;28;20051;-51
2022/02/06 06:12:18;;;;;;;23.02;3.97;;;8.80;99.90;;;;;;4971540;28;20120;-54
2022/02/06 06:14:47;;;;;;;26.40;4.18;;;8.90;99.90;;;;;;4998774;28;20471;-52
2022/02/06 06:17:12;;;;;;;27.65;3.88;;;8.90;99.90;;;;;;5004886;28;20034;-52
2022/02/06 06:19:42;;;;;;;18.65;3.53;;;8.90;99.90;;;;;;5003500;28;20099;-52
2022/02/06 06:22:10;;;;;;;20.92;3.55;;;8.80;99.90;;;;;;5013185;28;20034;-54
2022/02/06 06:24:42;;;;;;;24.50;3.80;;;8.90;99.90;;;;;;5011045;28;20037;-52
2022/02/06 06:27:07;;;;;;;31.65;4.13;;;8.80;99.90;;;;;;5005734;28;20095;-52
2022/02/06 06:29:33;;;;;;;24.48;4.45;;;8.80;99.90;;;;;;5009973;28;20445;-52
2022/02/06 06:31:58;;;;;;;21.52;3.13;;;8.80;99.90;;;;;;5003081;28;20053;-50
2022/02/06 06:34:24;;;;;;;18.70;2.80;;;8.80;99.90;;;;;;5011467;28;20061;-52
2022/02/06 06:36:50;;;;;;;21.52;3.10;;;8.80;99.90;;;;;;5001074;28;20101;-53
2022/02/06 06:39:32;;;;;;;21.20;3.30;;;8.70;99.90;;;;;;5000435;28;20479;-53
2022/02/06 06:41:57;;;;;;;24.17;4.50;;;8.70;99.90;;;;;;5002751;28;20042;-52
2022/02/06 06:44:23;;;;;;;24.95;3.92;;;8.70;99.90;;;;;;5005182;28;20033;-54
2022/02/06 06:46:48;;;;;;;21.42;3.83;;;8.70;99.90;;;;;;5011512;28;20042;-52
2022/02/06 06:49:14;;;;;;;17.60;3.35;;;8.70;99.90;;;;;;5012085;28;20049;-54
2022/02/06 06:51:39;;;;;;;17.83;3.72;;;8.70;99.90;;;;;;5011577;28;20034;-54
2022/02/06 06:54:12;;;;;;;22.92;3.60;;;8.80;99.90;;;;;;5012884;28;20041;-52
2022/02/06 06:56:45;;;;;;;21.02;3.15;;;8.80;99.90;;;;;;5003804;28;20311;-52
2022/02/06 06:59:27;;;;;;;20.17;3.78;;;8.80;99.90;;;;;;5007333;28;20077;-52
2022/02/06 07:02:05;;;;;;;20.38;3.45;;;8.80;99.90;;;;;;5000224;28;20080;-52
2022/02/06 07:04:30;;;;;;;16.33;3.30;;;8.80;99.90;;;;;;4989689;28;20513;-53
2022/02/06 07:06:56;;;;;;;26.15;3.83;;;8.90;99.90;;;;;;5003971;28;20103;-54
2022/02/06 07:09:23;;;;;;;20.10;3.40;;;8.90;99.90;;;;;;5005552;28;20042;-54
2022/02/06 07:11:48;;;;;;;21.80;4.03;;;8.80;99.90;;;;;;5006483;28;20429;-55
2022/02/06 07:14:14;;;;;;;18.33;3.33;;;8.80;99.90;;;;;;5000167;28;20034;-52
2022/02/06 07:16:39;;;;;;;17.13;3.03;;;8.80;99.90;;;;;;5006067;28;20037;-55
2022/02/06 07:19:05;;;;;;;15.70;3.10;;;8.80;99.90;;;;;;5000527;28;20472;-55
2022/02/06 07:21:34;;;;;;;21.02;3.20;;;8.80;99.90;;;;;;5004614;28;20565;-54
2022/02/06 07:24:00;;;;;;;29.73;3.60;;;8.80;99.90;;;;;;5004756;28;20053;-52
2022/02/06 07:26:26;;;;;;;23.42;3.42;;;8.80;99.90;;;;;;4986143;28;20394;-54
2022/02/06 07:28:57;;;;;;;17.98;3.08;;;8.80;99.90;;;;;;4987437;28;20125;-52
2022/02/06 07:31:23;;;;;;;14.00;2.93;;;8.70;99.90;;;;;;5010703;28;20439;-52
2022/02/06 07:33:49;;;;;;;15.32;3.20;;;8.70;99.90;;;;;;5011118;28;20334;-52
2022/02/06 07:36:16;;;;;;;20.02;2.90;;;8.70;99.90;;;;;;5005071;28;20505;-52
2022/02/06 07:38:42;;;;;;;19.30;3.67;;;8.70;99.90;;;;;;5008854;28;20509;-54
2022/02/06 07:41:07;;;;;;;14.23;2.80;;;8.70;99.90;;;;;;5005882;28;20081;-53
2022/02/06 07:43:33;;;;;;;22.75;3.10;;;8.70;99.90;;;;;;5000942;28;20033;-53
2022/02/06 07:45:59;;;;;;;15.23;2.63;;;8.70;99.90;;;;;;5006153;28;20050;-49
2022/02/06 07:48:25;;;;;;;18.20;3.10;;;8.70;99.90;;;;;;5009172;28;20073;-49
2022/02/06 07:50:51;;;;;;;17.52;2.85;;;8.70;99.90;;;;;;5006816;28;20046;-51
2022/02/06 07:53:18;;;;;;;15.00;2.75;;;8.70;99.90;;;;;;4967604;28;20081;-49
2022/02/06 07:55:44;;;;;;;19.02;2.97;;;8.70;99.90;;;;;;5010299;28;20057;-52
2022/02/06 07:58:09;;;;;;;20.75;2.97;;;8.60;99.90;;;;;;5010484;28;20408;-53
2022/02/06 08:00:35;;;;;;;19.02;3.25;;;8.60;99.90;;;;;;5009718;28;20033;-52
2022/02/06 08:03:00;;;;;;;23.98;3.75;;;8.60;99.90;;;;;;5001122;28;20035;-52
2022/02/06 08:05:27;;;;;;;21.98;3.60;;;8.60;99.90;;;;;;5009678;28;20034;-53
2022/02/06 08:07:53;;;;;;;22.88;4.13;;;8.50;99.90;;;;;;4999605;28;20388;-50
2022/02/06 08:10:20;;;;;;;27.80;4.35;;;8.60;99.90;;;;;;5003715;28;20401;-53
2022/02/06 08:12:54;;;;;;;26.17;4.20;;;8.50;99.90;;;;;;5007623;28;20038;-50
2022/02/06 08:15:20;;;;;;;22.92;3.50;;;8.50;99.90;;;;;;5011842;28;20041;-54
2022/02/06 08:17:45;;;;;;;21.90;3.78;;;8.70;99.90;;;;;;5008074;28;20050;-52
2022/02/06 08:20:13;;;;;;;22.08;3.92;;;8.50;99.90;;;;;;5011106;28;20417;-52
2022/02/06 08:22:41;;;;;;;20.30;4.00;;;8.50;99.90;;;;;;5010986;28;20030;-54
2022/02/06 08:25:08;;;;;;;23.05;4.35;;;8.50;99.90;;;;;;4993880;28;20315;-50
2022/02/06 08:27:34;;;;;;;23.60;4.07;;;8.50;99.90;;;;;;5010763;28;20129;-50
2022/02/06 08:30:00;;;;;;;27.40;4.32;;;8.50;99.90;;;;;;5011037;28;20558;-50
2022/02/06 08:32:27;;;;;;;28.40;4.22;;;8.50;99.90;;;;;;5011207;28;20498;-52
2022/02/06 08:34:55;;;;;;;25.98;4.05;;;8.50;99.90;;;;;;5011174;28;20335;-54
2022/02/06 08:37:22;;;;;;;35.65;5.25;;;8.50;99.90;;;;;;5010781;28;20034;-50
2022/02/06 08:39:48;;;;;;;25.10;3.85;;;8.50;99.90;;;;;;5003237;28;20046;-53
2022/02/06 08:42:14;;;;;;;24.98;4.60;;;8.50;99.90;;;;;;5008509;28;20406;-53
2022/02/06 08:44:41;;;;;;;21.85;4.50;;;8.50;99.90;;;;;;5006604;28;20153;-53
2022/02/06 08:47:10;;;;;;;26.58;4.47;;;8.50;99.90;;;;;;5009828;28;20052;-55
2022/02/06 08:49:37;;;;;;;24.15;5.00;;;8.50;99.90;;;;;;5012514;28;20092;-55
2022/02/06 08:52:03;;;;;;;29.23;4.28;;;8.50;99.90;;;;;;5009181;28;20046;-53
2022/02/06 08:54:32;;;;;;;19.40;3.38;;;8.50;99.90;;;;;;5010774;28;20121;-54
2022/02/06 08:57:01;;;;;;;24.63;4.20;;;8.50;99.90;;;;;;5013067;28;20041;-55
2022/02/06 08:59:30;;;;;;;19.15;3.92;;;8.60;99.90;;;;;;5001107;28;20046;-54
2022/02/06 09:02:00;;;;;;;25.70;4.35;;;8.60;99.90;;;;;;5010290;28;20559;-55
2022/02/06 09:04:27;;;;;;;29.70;4.47;;;8.60;99.90;;;;;;5007495;28;20029;-54
2022/02/06 09:06:57;;;;;;;20.77;3.60;;;8.50;99.90;;;;;;5006882;28;20069;-52
2022/02/06 09:09:22;;;;;;;19.15;3.70;;;8.60;99.90;;;;;;5012482;28;20119;-54
2022/02/06 09:11:49;;;;;;;21.40;4.13;;;8.60;99.90;;;;;;5010693;28;20105;-53
2022/02/06 09:14:17;;;;;;;22.00;3.70;;;8.60;99.90;;;;;;5009153;28;20034;-53
2022/02/06 09:16:43;;;;;;;21.08;3.40;;;8.60;99.90;;;;;;4991740;28;20045;-54
2022/02/06 09:19:08;;;;;;;22.38;3.50;;;8.60;99.90;;;;;;5002871;28;20045;-55
2022/02/06 09:21:34;;;;;;;22.73;3.67;;;8.60;99.90;;;;;;5010576;28;20030;-50
2022/02/06 09:23:59;;;;;;;24.42;4.30;;;8.60;99.90;;;;;;5008945;28;20092;-54
2022/02/06 09:26:26;;;;;;;21.40;3.92;;;8.60;99.90;;;;;;5009492;28;20092;-51
2022/02/06 09:28:51;;;;;;;14.05;2.88;;;8.60;99.90;;;;;;5008029;28;20050;-54
2022/02/06 09:31:23;;;;;;;17.42;3.45;;;8.70;99.90;;;;;;5009809;28;20514;-54
2022/02/06 09:36:14;;;;;;;17.98;3.08;;;8.60;99.90;;;;;;5005590;28;20498;-50
2022/02/06 09:38:40;;;;;;;19.42;3.08;;;8.60;99.90;;;;;;5004022;28;20526;-54
2022/02/06 09:41:05;;;;;;;10.80;2.13;;;8.60;99.90;;;;;;5006493;28;20088;-53
2022/02/06 09:43:32;;;;;;;19.17;3.50;;;8.70;99.90;;;;;;5008880;28;20040;-53
2022/02/06 09:46:00;;;;;;;18.83;3.50;;;8.70;99.90;;;;;;5011102;28;20360;-54
2022/02/06 09:48:29;;;;;;;21.45;2.90;;;8.60;99.90;;;;;;5005735;28;20501;-54
2022/02/06 09:50:56;;;;;;;12.00;3.03;;;8.70;99.90;;;;;;5009040;28;20487;-54
2022/02/06 09:53:21;;;;;;;13.13;3.08;;;8.70;99.90;;;;;;5005454;28;20069;-55
2022/02/06 09:55:48;;;;;;;17.65;3.00;;;8.70;99.90;;;;;;5010273;28;20123;-52
2022/02/06 09:58:38;;;;;;;12.55;3.00;;;8.70;99.90;;;;;;5012491;28;20038;-54
2022/02/06 10:01:00;;;;;;;13.98;2.42;;;8.70;99.90;;;;;;5012968;28;20045;-53
2022/02/06 10:03:30;;;;;;;15.52;2.70;;;8.60;99.90;;;;;;5013353;28;20049;-53
2022/02/06 10:05:57;;;;;;;18.88;3.40;;;8.70;99.90;;;;;;5012895;28;20494;-55
2022/02/06 10:08:31;;;;;;;12.20;3.10;;;8.70;99.90;;;;;;5007627;28;20054;-55
2022/02/06 10:11:16;;;;;;;10.52;2.30;;;8.60;99.90;;;;;;5006319;28;20046;-51
2022/02/06 10:13:44;;;;;;;14.57;2.78;;;8.70;99.90;;;;;;5007538;28;20505;-55
2022/02/06 10:16:15;;;;;;;11.95;2.33;;;8.70;99.90;;;;;;5006706;28;20046;-55
2022/02/06 10:18:43;;;;;;;9.60;2.20;;;8.70;99.90;;;;;;4987034;28;20042;-55
2022/02/06 10:21:12;;;;;;;11.85;2.85;;;8.70;99.90;;;;;;5006504;28;20395;-54
2022/02/06 10:23:54;;;;;;;9.25;2.80;;;8.70;99.90;;;;;;5012052;28;20037;-53
2022/02/06 10:26:27;;;;;;;9.30;2.40;;;8.60;99.90;;;;;;5006955;28;20060;-54
2022/02/06 10:29:11;;;;;;;15.20;2.35;;;8.60;99.90;;;;;;5012655;28;20049;-54
2022/02/06 10:31:41;;;;;;;10.63;2.10;;;8.60;99.90;;;;;;4995131;28;20050;-54
2022/02/06 10:34:26;;;;;;;15.10;2.35;;;8.70;99.90;;;;;;5012996;28;20446;-54
2022/02/06 10:37:09;;;;;;;11.07;2.00;;;8.70;99.90;;;;;;5012525;28;20034;-52
2022/02/06 10:39:38;;;;;;;9.43;2.10;;;8.60;99.90;;;;;;5012494;28;20053;-54
2022/02/06 10:42:04;;;;;;;11.40;2.58;;;8.70;99.90;;;;;;5012598;28;20092;-54
2022/02/06 10:44:30;;;;;;;10.52;2.28;;;8.70;99.90;;;;;;5012889;28;20038;-53
2022/02/06 10:46:58;;;;;;;11.00;2.00;;;8.70;99.90;;;;;;5012223;28;20068;-53
2022/02/06 10:49:25;;;;;;;13.13;2.20;;;8.70;99.90;;;;;;5005863;28;20046;-53
2022/02/06 10:51:59;;;;;;;11.73;2.47;;;8.70;99.90;;;;;;5010954;28;20037;-51
2022/02/06 10:54:27;;;;;;;10.98;2.95;;;8.70;99.90;;;;;;5006465;28;20069;-53
2022/02/06 10:57:10;;;;;;;10.75;2.05;;;8.70;99.90;;;;;;4994454;28;20046;-53
2022/02/06 10:59:37;;;;;;;;;;;8.70;99.90;;;;;;4962982;28;20085;-54
2022/02/06 11:02:24;;;;;;;15.85;2.25;;;8.80;99.90;;;;;;5005888;28;19957;-55
2022/02/06 11:05:21;;;;;;;12.40;1.80;;;8.80;99.90;;;;;;5001382;28;20022;-53
2022/02/06 11:07:57;;;;;;;6.95;1.70;;;8.70;99.90;;;;;;5000638;28;20080;-53
2022/02/06 11:10:25;;;;;;;3.50;0.95;;;8.40;99.90;;;;;;4988629;28;20045;-53
2022/02/06 11:12:53;;;;;;;5.40;1.42;;;8.60;99.90;;;;;;5005042;28;20096;-53
2022/02/06 11:15:25;;;;;;;2.97;0.90;;;8.30;99.90;;;;;;5007202;28;20398;-54
2022/02/06 11:18:10;;;;;;;2.97;0.63;;;8.00;99.90;;;;;;4989966;28;20065;-54
2022/02/06 11:20:52;;;;;;;1.52;0.32;;;7.70;99.90;;;;;;5007993;28;20565;-55
2022/02/06 11:23:17;;;;;;;1.83;0.40;;;7.60;99.90;;;;;;5008407;28;20037;-54
2022/02/06 11:25:43;;;;;;;2.20;0.28;;;7.30;99.90;;;;;;5003253;28;20442;-54
2022/02/06 11:28:11;;;;;;;4.40;0.50;;;7.20;99.90;;;;;;5006308;28;20033;-55
2022/02/06 11:30:39;;;;;;;2.35;0.50;;;7.10;99.90;;;;;;5004854;28;20038;-52
2022/02/06 11:33:06;;;;;;;1.77;0.60;;;7.00;99.90;;;;;;5001493;28;20070;-55
2022/02/06 11:35:34;;;;;;;1.98;0.52;;;6.90;99.90;;;;;;5004176;28;20442;-54
2022/02/06 11:44:24;;;;;;;2.67;0.50;;;6.80;99.90;;;;;;5008380;28;20044;-54
2022/02/06 11:47:19;;;;;;;1.70;0.40;;;6.80;99.90;;;;;;4999495;28;20128;-53
2022/02/06 11:49:48;;;;;;;1.98;0.55;;;6.80;99.90;;;;;;5008464;28;20046;-56
2022/02/06 11:52:15;;;;;;;2.60;0.40;;;6.80;99.90;;;;;;5009037;28;20038;-50
2022/02/06 11:54:54;;;;;;;3.55;0.70;;;6.70;99.90;;;;;;5008407;28;20180;-50
2022/02/06 11:57:27;;;;;;;4.80;0.73;;;6.70;99.90;;;;;;5007162;28;20038;-52
2022/02/06 12:00:11;;;;;;;8.55;1.05;;;6.70;99.90;;;;;;4987655;28;20056;-54
2022/02/06 12:02:48;;;;;;;3.35;0.65;;;6.70;99.90;;;;;;5005481;28;20068;-53
2022/02/06 12:05:20;;;;;;;5.70;1.40;;;6.70;99.90;;;;;;5008236;28;20439;-54
2022/02/06 12:07:53;;;;;;;3.28;0.80;;;6.70;99.90;;;;;;5010018;28;20438;-51
2022/02/06 12:10:32;;;;;;;3.63;0.90;;;6.70;99.90;;;;;;5006348;28;20541;-51
2022/02/06 12:13:25;;;;;;;6.75;1.00;;;6.70;99.90;;;;;;5010427;28;20049;-54
2022/02/06 12:16:01;;;;;;;5.13;0.95;;;6.80;99.90;;;;;;5009276;28;20125;-53
2022/02/06 12:18:38;;;;;;;5.28;1.00;;;6.80;99.90;;;;;;5005327;28;20045;-54
2022/02/06 12:21:15;;;;;;;2.90;0.80;;;6.80;99.90;;;;;;5012011;28;20041;-55
2022/02/06 12:23:44;;;;;;;10.35;1.42;;;6.80;99.90;;;;;;5013975;28;20080;-53
2022/02/06 12:26:30;;;;;;;6.68;0.90;;;6.80;99.90;;;;;;5011525;28;20563;-55
2022/02/06 12:28:59;;;;;;;8.57;1.05;;;6.80;99.90;;;;;;5012533;28;20113;-55
2022/02/06 12:31:34;;;;;;;6.07;1.13;;;6.70;99.90;;;;;;5012019;28;20048;-55
2022/02/06 12:36:54;;;;;;;9.75;1.33;;;6.70;99.90;;;;;;5015652;28;20045;-55
2022/02/06 12:39:25;;;;;;;5.60;0.98;;;6.70;99.90;;;;;;5010294;28;20042;-53
2022/02/06 12:41:52;;;;;;;7.57;1.27;;;6.70;99.90;;;;;;5004711;28;20064;-56
2022/02/06 12:44:19;;;;;;;5.60;1.17;;;6.70;99.90;;;;;;5001130;28;20450;-54
2022/02/06 12:46:47;;;;;;;11.75;1.50;;;6.70;99.90;;;;;;5003942;28;20038;-52
2022/02/06 12:49:20;;;;;;;4.72;1.15;;;6.70;99.90;;;;;;5005335;28;20072;-55
2022/02/06 12:51:46;;;;;;;6.70;1.35;;;6.70;99.90;;;;;;5008837;28;20042;-51
2022/02/06 12:54:16;;;;;;;7.20;1.20;;;6.80;99.90;;;;;;5009760;28;20092;-51
2022/02/06 12:56:43;;;;;;;13.75;1.77;;;6.80;99.90;;;;;;5009278;28;20042;-51
2022/02/06 12:59:11;;;;;;;4.95;1.13;;;6.80;99.90;;;;;;5013032;28;20046;-51
2022/02/06 13:01:40;;;;;;;6.60;1.38;;;6.80;99.90;;;;;;5010277;28;20034;-54
2022/02/06 13:04:09;;;;;;;6.25;1.30;;;6.90;99.90;;;;;;5014119;28;20077;-54
2022/02/06 13:06:36;;;;;;;9.25;1.20;;;6.90;99.90;;;;;;4999795;28;20480;-52
2022/02/06 13:09:07;;;;;;;6.63;0.82;;;6.90;99.90;;;;;;5011281;28;20112;-52
2022/02/06 13:11:43;;;;;;;8.18;1.15;;;6.90;99.90;;;;;;5014224;28;20034;-51
2022/02/06 13:14:18;;;;;;;6.47;1.20;;;7.00;99.90;;;;;;5006155;28;20394;-51
2022/02/06 13:19:29;;;;;;;4.72;0.93;;;7.10;99.90;;;;;;5014354;28;20046;-54
2022/02/06 13:24:58;;;;;;;7.72;1.42;;;7.10;99.90;;;;;;5013690;28;20125;-53
2022/02/06 13:27:41;;;;;;;5.40;0.90;;;7.10;99.90;;;;;;5002643;28;20038;-53
2022/02/06 13:30:27;;;;;;;9.32;1.08;;;7.10;99.90;;;;;;5013769;28;20050;-52
2022/02/06 13:35:32;;;;;;;8.85;1.50;;;7.20;99.90;;;;;;5014088;28;20046;-52
2022/02/06 13:38:12;;;;;;;15.38;1.90;;;7.20;99.90;;;;;;4996295;28;20069;-53
2022/02/06 13:40:50;;;;;;;10.48;1.75;;;7.20;99.90;;;;;;5028482;28;20038;-51
2022/02/06 13:43:21;;;;;;;6.38;1.35;;;7.30;99.90;;;;;;5013592;28;20038;-54
2022/02/06 13:45:48;;;;;;;5.85;1.40;;;7.40;99.90;;;;;;5013925;28;20049;-50
2022/02/06 13:48:17;;;;;;;7.15;1.20;;;7.40;99.90;;;;;;5013546;28;20091;-52
2022/02/06 13:50:52;;;;;;;9.75;1.45;;;7.50;99.90;;;;;;5012671;28;20144;-52
2022/02/06 13:53:20;;;;;;;9.65;1.70;;;7.50;99.90;;;;;;5014069;28;20095;-50
2022/02/06 13:55:56;;;;;;;8.63;1.35;;;7.60;99.90;;;;;;5003730;28;20042;-53
2022/02/06 13:58:24;;;;;;;10.40;1.20;;;7.60;99.90;;;;;;5009050;28;20034;-50
2022/02/06 14:00:56;;;;;;;9.40;1.30;;;7.60;99.90;;;;;;5012219;28;20490;-54
2022/02/06 14:03:22;;;;;;;;;;;7.70;99.90;;;;;;5007927;28;20037;-53
2022/02/06 14:05:52;;;;;;;6.55;1.38;;;7.70;99.90;;;;;;5012748;28;19921;-54
2022/02/06 14:08:20;;;;;;;6.40;1.25;;;7.80;99.90;;;;;;5012286;28;20049;-50
2022/02/06 14:11:02;;;;;;;9.70;2.00;;;7.80;99.90;;;;;;5009479;28;20042;-50
2022/02/06 14:13:28;;;;;;;;;;;7.80;99.90;;;;;;5007224;28;20046;-50
2022/02/06 14:16:12;;;;;;;11.38;1.48;;;7.80;99.90;;;;;;5058539;22;20321;-49
2022/02/06 14:18:54;;;;;;;6.35;1.48;;;7.90;99.90;;;;;;5071676;28;20507;-51
2022/02/06 14:21:19;;;;;;;12.05;2.28;;;7.80;99.90;;;;;;5072704;28;20044;-54
2022/02/06 14:24:02;;;;;;;11.50;1.77;;;7.80;99.90;;;;;;5092685;28;20043;-49
2022/02/06 14:26:27;;;;;;;;;;;7.80;99.90;;;;;;5076607;28;20044;-53
2022/02/06 14:28:53;;;;;;;16.33;2.58;;;7.80;99.90;;;;;;5071532;28;20292;-49
2022/02/06 14:31:27;;;;;;;9.45;1.60;;;7.70;99.90;;;;;;5072749;28;20036;-49
2022/02/06 14:34:12;;;;;;;10.75;2.10;;;7.80;99.90;;;;;;5072730;28;20369;-49
2022/02/06 14:36:38;;;;;;;10.40;1.83;;;7.70;99.90;;;;;;5070909;28;20162;-51
2022/02/06 14:39:03;;;;;;;11.20;1.58;;;7.70;99.90;;;;;;5072331;28;20524;-48
2022/02/06 14:41:47;;;;;;;10.65;1.65;;;7.70;99.90;;;;;;5070872;28;20496;-48
2022/02/06 14:44:13;;;;;;;9.00;1.55;;;7.70;99.90;;;;;;5071367;28;20396;-49
2022/02/06 14:46:39;;;;;;;7.90;1.40;;;7.80;99.90;;;;;;5045295;28;20033;-49
2022/02/06 14:49:07;;;;;;;10.48;1.75;;;7.90;99.90;;;;;;5040256;28;20443;-50
2022/02/06 14:51:36;;;;;;;9.05;1.80;;;7.90;99.90;;;;;;5032087;28;20038;-49
2022/02/06 14:54:05;;;;;;;13.50;2.33;;;7.90;99.90;;;;;;5038277;28;20071;-51
2022/02/06 14:56:36;;;;;;;7.43;1.63;;;7.90;99.90;;;;;;5051773;28;20068;-49
2022/02/06 14:59:02;;;;;;;12.75;1.80;;;7.90;99.90;;;;;;5052508;28;20049;-49
2022/02/06 15:01:29;;;;;;;13.60;1.90;;;7.90;99.90;;;;;;5051885;28;20033;-50
2022/02/06 15:03:55;;;;;;;9.68;1.70;;;7.90;99.90;;;;;;5053554;28;20425;-49
2022/02/06 15:06:20;;;;;;;11.43;2.33;;;7.80;99.90;;;;;;5071731;28;20211;-53